Terminal Aerodrome Forecast
Issued by NWS

Home | Current Version | Previous Version | Text Only | Print | Product List | Glossary On
Versions: 1 2 3 4 5 6 7 8 9 10 11 12 13 14 15 16 17 18 19 20 21 22 23 24 25 26 27 28 29 30
000
FTAK31 PAFA 191722
TAFAMC
TAF
PAMC 191722Z 1918/2018 00000KT 3SM -SN SCT040 OVC060
     FM192100 VRB03KT 2SM -SN BR BKN025 OVC050
     FM200100 03002KT 1SM -SN BR OVC015=

USA.gov is the U.S. government's official web portal to all federal, state and local government web resources and services.